sensor_id;sensor_type;location;lat;lon;timestamp;P1;durP1;ratioP1;P2;durP2;ratioP2
70729;SDS011;58315;53.336;55.932;2023-04-03T00:01:18;4.15;;;0.63;;
70729;SDS011;58315;53.336;55.932;2023-04-03T00:03:45;2.28;;;0.90;;
70729;SDS011;58315;53.336;55.932;2023-04-03T00:06:11;2.42;;;1.00;;
70729;SDS011;58315;53.336;55.932;2023-04-03T00:08:38;8.45;;;1.23;;
70729;SDS011;58315;53.336;55.932;2023-04-03T00:11:05;2.88;;;0.75;;
70729;SDS011;58315;53.336;55.932;2023-04-03T00:13:32;3.78;;;0.93;;
70729;SDS011;58315;53.336;55.932;2023-04-03T00:15:58;3.53;;;0.65;;
70729;SDS011;58315;53.336;55.932;2023-04-03T00:18:25;5.30;;;0.73;;
70729;SDS011;58315;53.336;55.932;2023-04-03T00:20:51;3.50;;;0.80;;
70729;SDS011;58315;53.336;55.932;2023-04-03T00:23:17;2.13;;;0.90;;
70729;SDS011;58315;53.336;55.932;2023-04-03T00:25:43;6.32;;;0.70;;
70729;SDS011;58315;53.336;55.932;2023-04-03T00:28:09;2.00;;;0.70;;
70729;SDS011;58315;53.336;55.932;2023-04-03T00:30:35;4.90;;;0.90;;
70729;SDS011;58315;53.336;55.932;2023-04-03T00:33:01;2.28;;;1.10;;
70729;SDS011;58315;53.336;55.932;2023-04-03T00:35:28;1.75;;;0.80;;
70729;SDS011;58315;53.336;55.932;2023-04-03T00:37:55;3.45;;;0.88;;
70729;SDS011;58315;53.336;55.932;2023-04-03T00:40:22;4.78;;;0.70;;
70729;SDS011;58315;53.336;55.932;2023-04-03T00:42:55;7.90;;;0.98;;
70729;SDS011;58315;53.336;55.932;2023-04-03T00:45:28;2.97;;;1.10;;
70729;SDS011;58315;53.336;55.932;2023-04-03T00:47:57;3.85;;;1.10;;
70729;SDS011;58315;53.336;55.932;2023-04-03T00:50:26;3.15;;;1.17;;
70729;SDS011;58315;53.336;55.932;2023-04-03T00:52:54;3.00;;;1.33;;
70729;SDS011;58315;53.336;55.932;2023-04-03T00:55:20;5.53;;;0.80;;
70729;SDS011;58315;53.336;55.932;2023-04-03T00:57:47;5.00;;;1.20;;
70729;SDS011;58315;53.336;55.932;2023-04-03T01:00:16;3.17;;;1.00;;
70729;SDS011;58315;53.336;55.932;2023-04-03T01:02:45;2.92;;;0.90;;
70729;SDS011;58315;53.336;55.932;2023-04-03T01:05:12;6.05;;;0.93;;
70729;SDS011;58315;53.336;55.932;2023-04-03T01:07:45;1.73;;;0.80;;
70729;SDS011;58315;53.336;55.932;2023-04-03T01:10:14;3.20;;;1.02;;
70729;SDS011;58315;53.336;55.932;2023-04-03T01:12:42;3.65;;;0.82;;
70729;SDS011;58315;53.336;55.932;2023-04-03T01:15:12;5.77;;;1.10;;
70729;SDS011;58315;53.336;55.932;2023-04-03T01:17:44;1.75;;;0.88;;
70729;SDS011;58315;53.336;55.932;2023-04-03T01:25:36;4.32;;;1.00;;
70729;SDS011;58315;53.336;55.932;2023-04-03T01:28:06;3.33;;;0.88;;
70729;SDS011;58315;53.336;55.932;2023-04-03T01:30:39;6.28;;;1.20;;
70729;SDS011;58315;53.336;55.932;2023-04-03T01:33:12;4.13;;;0.80;;
70729;SDS011;58315;53.336;55.932;2023-04-03T01:35:38;2.60;;;0.85;;
70729;SDS011;58315;53.336;55.932;2023-04-03T01:38:04;1.60;;;0.70;;
70729;SDS011;58315;53.336;55.932;2023-04-03T01:40:30;9.85;;;1.45;;
70729;SDS011;58315;53.336;55.932;2023-04-03T01:42:56;27.13;;;6.15;;
70729;SDS011;58315;53.336;55.932;2023-04-03T01:45:22;28.45;;;3.83;;
70729;SDS011;58315;53.336;55.932;2023-04-03T01:47:48;20.08;;;2.33;;
70729;SDS011;58315;53.336;55.932;2023-04-03T01:50:15;34.38;;;3.03;;
70729;SDS011;58315;53.336;55.932;2023-04-03T01:52:41;20.52;;;1.90;;
70729;SDS011;58315;53.336;55.932;2023-04-03T01:55:07;33.65;;;3.03;;
70729;SDS011;58315;53.336;55.932;2023-04-03T01:57:34;78.57;;;4.28;;
70729;SDS011;58315;53.336;55.932;2023-04-03T02:00:00;63.42;;;4.03;;
70729;SDS011;58315;53.336;55.932;2023-04-03T02:02:26;43.47;;;4.68;;
70729;SDS011;58315;53.336;55.932;2023-04-03T02:04:52;19.23;;;2.45;;
70729;SDS011;58315;53.336;55.932;2023-04-03T02:07:18;42.92;;;2.92;;
70729;SDS011;58315;53.336;55.932;2023-04-03T02:09:44;37.80;;;2.83;;
70729;SDS011;58315;53.336;55.932;2023-04-03T02:12:09;49.35;;;3.30;;
70729;SDS011;58315;53.336;55.932;2023-04-03T02:14:36;31.17;;;3.45;;
70729;SDS011;58315;53.336;55.932;2023-04-03T02:17:02;36.72;;;4.43;;
70729;SDS011;58315;53.336;55.932;2023-04-03T02:19:34;66.72;;;5.13;;
70729;SDS011;58315;53.336;55.932;2023-04-03T02:22:02;84.57;;;5.82;;
70729;SDS011;58315;53.336;55.932;2023-04-03T02:24:29;61.40;;;5.15;;
70729;SDS011;58315;53.336;55.932;2023-04-03T02:26:55;63.45;;;5.80;;
70729;SDS011;58315;53.336;55.932;2023-04-03T02:29:21;62.67;;;3.47;;
70729;SDS011;58315;53.336;55.932;2023-04-03T02:31:48;55.47;;;4.35;;
70729;SDS011;58315;53.336;55.932;2023-04-03T02:34:14;63.20;;;5.10;;
70729;SDS011;58315;53.336;55.932;2023-04-03T02:36:41;60.08;;;5.40;;
70729;SDS011;58315;53.336;55.932;2023-04-03T02:39:09;48.20;;;3.80;;
70729;SDS011;58315;53.336;55.932;2023-04-03T02:41:35;55.50;;;4.03;;
70729;SDS011;58315;53.336;55.932;2023-04-03T02:44:04;39.38;;;4.25;;
70729;SDS011;58315;53.336;55.932;2023-04-03T02:46:32;11.85;;;1.60;;
70729;SDS011;58315;53.336;55.932;2023-04-03T02:48:58;15.90;;;1.85;;
70729;SDS011;58315;53.336;55.932;2023-04-03T02:51:25;11.07;;;1.58;;
70729;SDS011;58315;53.336;55.932;2023-04-03T02:53:52;9.52;;;1.33;;
70729;SDS011;58315;53.336;55.932;2023-04-03T02:56:22;15.27;;;1.52;;
70729;SDS011;58315;53.336;55.932;2023-04-03T02:58:48;23.30;;;1.92;;
70729;SDS011;58315;53.336;55.932;2023-04-03T03:01:16;43.97;;;3.20;;
70729;SDS011;58315;53.336;55.932;2023-04-03T03:03:42;43.13;;;3.10;;
70729;SDS011;58315;53.336;55.932;2023-04-03T03:06:12;38.08;;;2.42;;
70729;SDS011;58315;53.336;55.932;2023-04-03T03:08:40;70.68;;;3.30;;
70729;SDS011;58315;53.336;55.932;2023-04-03T03:11:06;43.95;;;3.70;;
70729;SDS011;58315;53.336;55.932;2023-04-03T03:13:32;37.83;;;3.85;;
70729;SDS011;58315;53.336;55.932;2023-04-03T03:15:59;63.83;;;4.47;;
70729;SDS011;58315;53.336;55.932;2023-04-03T03:18:25;68.90;;;4.07;;
70729;SDS011;58315;53.336;55.932;2023-04-03T03:20:52;74.75;;;5.38;;
70729;SDS011;58315;53.336;55.932;2023-04-03T03:23:20;41.47;;;2.42;;
70729;SDS011;58315;53.336;55.932;2023-04-03T03:25:48;28.13;;;1.88;;
70729;SDS011;58315;53.336;55.932;2023-04-03T03:28:15;13.10;;;1.23;;
70729;SDS011;58315;53.336;55.932;2023-04-03T03:30:41;20.17;;;1.98;;
70729;SDS011;58315;53.336;55.932;2023-04-03T03:33:07;8.48;;;1.27;;
70729;SDS011;58315;53.336;55.932;2023-04-03T03:35:33;17.13;;;1.50;;
70729;SDS011;58315;53.336;55.932;2023-04-03T03:37:59;1.98;;;0.90;;
70729;SDS011;58315;53.336;55.932;2023-04-03T03:40:25;7.78;;;1.20;;
70729;SDS011;58315;53.336;55.932;2023-04-03T03:42:52;32.33;;;1.85;;
70729;SDS011;58315;53.336;55.932;2023-04-03T03:45:18;10.65;;;1.58;;
70729;SDS011;58315;53.336;55.932;2023-04-03T03:47:44;10.45;;;1.25;;
70729;SDS011;58315;53.336;55.932;2023-04-03T03:50:11;14.38;;;1.20;;
70729;SDS011;58315;53.336;55.932;2023-04-03T03:52:37;20.48;;;1.83;;
70729;SDS011;58315;53.336;55.932;2023-04-03T03:55:04;11.55;;;1.15;;
70729;SDS011;58315;53.336;55.932;2023-04-03T03:57:31;7.88;;;1.30;;
70729;SDS011;58315;53.336;55.932;2023-04-03T03:59:58;5.05;;;1.42;;
70729;SDS011;58315;53.336;55.932;2023-04-03T04:02:24;6.82;;;1.10;;
70729;SDS011;58315;53.336;55.932;2023-04-03T04:04:52;5.78;;;0.77;;
70729;SDS011;58315;53.336;55.932;2023-04-03T04:07:18;14.77;;;1.45;;
70729;SDS011;58315;53.336;55.932;2023-04-03T04:09:45;6.63;;;1.00;;
70729;SDS011;58315;53.336;55.932;2023-04-03T04:12:11;4.93;;;1.13;;
70729;SDS011;58315;53.336;55.932;2023-04-03T04:14:38;8.65;;;1.30;;
70729;SDS011;58315;53.336;55.932;2023-04-03T04:17:06;5.80;;;1.50;;
70729;SDS011;58315;53.336;55.932;2023-04-03T04:19:34;11.80;;;1.58;;
70729;SDS011;58315;53.336;55.932;2023-04-03T04:22:00;11.95;;;1.52;;
70729;SDS011;58315;53.336;55.932;2023-04-03T04:24:28;7.25;;;1.20;;
70729;SDS011;58315;53.336;55.932;2023-04-03T04:26:55;5.88;;;1.20;;
70729;SDS011;58315;53.336;55.932;2023-04-03T04:29:22;2.55;;;1.20;;
70729;SDS011;58315;53.336;55.932;2023-04-03T04:31:50;23.90;;;1.80;;
70729;SDS011;58315;53.336;55.932;2023-04-03T04:34:16;6.55;;;1.55;;
70729;SDS011;58315;53.336;55.932;2023-04-03T04:36:42;9.23;;;1.55;;
70729;SDS011;58315;53.336;55.932;2023-04-03T04:39:09;11.88;;;1.73;;
70729;SDS011;58315;53.336;55.932;2023-04-03T04:41:35;12.52;;;1.33;;
70729;SDS011;58315;53.336;55.932;2023-04-03T04:44:04;9.85;;;1.58;;
70729;SDS011;58315;53.336;55.932;2023-04-03T04:46:31;4.72;;;1.00;;
70729;SDS011;58315;53.336;55.932;2023-04-03T04:48:58;6.13;;;1.15;;
70729;SDS011;58315;53.336;55.932;2023-04-03T04:51:27;4.63;;;1.05;;
70729;SDS011;58315;53.336;55.932;2023-04-03T04:53:53;20.42;;;1.55;;
70729;SDS011;58315;53.336;55.932;2023-04-03T04:56:19;6.90;;;1.25;;
70729;SDS011;58315;53.336;55.932;2023-04-03T04:58:47;8.48;;;1.25;;
70729;SDS011;58315;53.336;55.932;2023-04-03T05:01:15;14.20;;;1.45;;
70729;SDS011;58315;53.336;55.932;2023-04-03T05:03:51;1.92;;;0.93;;
70729;SDS011;58315;53.336;55.932;2023-04-03T05:06:18;10.77;;;1.27;;
70729;SDS011;58315;53.336;55.932;2023-04-03T05:08:45;12.40;;;1.30;;
70729;SDS011;58315;53.336;55.932;2023-04-03T05:11:11;7.07;;;1.05;;
70729;SDS011;58315;53.336;55.932;2023-04-03T05:13:38;5.63;;;1.08;;
70729;SDS011;58315;53.336;55.932;2023-04-03T05:16:04;5.72;;;1.52;;
70729;SDS011;58315;53.336;55.932;2023-04-03T05:18:31;19.63;;;1.70;;
70729;SDS011;58315;53.336;55.932;2023-04-03T05:21:01;6.65;;;1.23;;
70729;SDS011;58315;53.336;55.932;2023-04-03T05:23:27;19.80;;;1.50;;
70729;SDS011;58315;53.336;55.932;2023-04-03T05:25:53;12.00;;;1.20;;
70729;SDS011;58315;53.336;55.932;2023-04-03T05:28:21;26.48;;;2.03;;
70729;SDS011;58315;53.336;55.932;2023-04-03T05:30:52;7.03;;;1.45;;
70729;SDS011;58315;53.336;55.932;2023-04-03T05:33:24;6.35;;;1.17;;
70729;SDS011;58315;53.336;55.932;2023-04-03T05:35:53;6.03;;;1.50;;
70729;SDS011;58315;53.336;55.932;2023-04-03T05:38:24;10.90;;;1.10;;
70729;SDS011;58315;53.336;55.932;2023-04-03T05:40:51;17.13;;;1.20;;
70729;SDS011;58315;53.336;55.932;2023-04-03T05:43:17;8.65;;;1.10;;
70729;SDS011;58315;53.336;55.932;2023-04-03T05:45:44;12.73;;;2.13;;
70729;SDS011;58315;53.336;55.932;2023-04-03T05:48:10;7.57;;;1.20;;
70729;SDS011;58315;53.336;55.932;2023-04-03T05:50:36;10.15;;;1.60;;
70729;SDS011;58315;53.336;55.932;2023-04-03T05:53:12;14.80;;;2.13;;
70729;SDS011;58315;53.336;55.932;2023-04-03T05:55:44;52.75;;;2.80;;
70729;SDS011;58315;53.336;55.932;2023-04-03T05:58:11;33.88;;;2.00;;
70729;SDS011;58315;53.336;55.932;2023-04-03T06:00:37;12.18;;;1.52;;
70729;SDS011;58315;53.336;55.932;2023-04-03T06:03:03;10.48;;;1.65;;
70729;SDS011;58315;53.336;55.932;2023-04-03T06:05:30;19.13;;;1.88;;
70729;SDS011;58315;53.336;55.932;2023-04-03T06:07:56;9.18;;;1.50;;
70729;SDS011;58315;53.336;55.932;2023-04-03T06:10:22;12.27;;;1.67;;
70729;SDS011;58315;53.336;55.932;2023-04-03T06:12:49;18.33;;;1.88;;
70729;SDS011;58315;53.336;55.932;2023-04-03T06:15:16;20.67;;;1.67;;
70729;SDS011;58315;53.336;55.932;2023-04-03T06:17:43;23.95;;;1.67;;
70729;SDS011;58315;53.336;55.932;2023-04-03T06:20:09;17.25;;;1.90;;
70729;SDS011;58315;53.336;55.932;2023-04-03T06:22:36;11.48;;;1.33;;
70729;SDS011;58315;53.336;55.932;2023-04-03T06:25:03;17.50;;;1.48;;
70729;SDS011;58315;53.336;55.932;2023-04-03T06:27:30;8.38;;;1.52;;
70729;SDS011;58315;53.336;55.932;2023-04-03T06:29:56;15.75;;;1.70;;
70729;SDS011;58315;53.336;55.932;2023-04-03T06:32:22;13.60;;;2.35;;
70729;SDS011;58315;53.336;55.932;2023-04-03T06:34:48;29.20;;;2.05;;
70729;SDS011;58315;53.336;55.932;2023-04-03T06:37:17;18.50;;;2.10;;
70729;SDS011;58315;53.336;55.932;2023-04-03T06:39:45;8.55;;;1.58;;
70729;SDS011;58315;53.336;55.932;2023-04-03T06:42:12;6.72;;;1.38;;
70729;SDS011;58315;53.336;55.932;2023-04-03T06:44:46;10.77;;;1.50;;
70729;SDS011;58315;53.336;55.932;2023-04-03T06:47:13;15.55;;;1.98;;
70729;SDS011;58315;53.336;55.932;2023-04-03T06:49:40;18.60;;;2.45;;
70729;SDS011;58315;53.336;55.932;2023-04-03T06:52:07;12.00;;;1.30;;
70729;SDS011;58315;53.336;55.932;2023-04-03T06:54:33;10.55;;;1.70;;
70729;SDS011;58315;53.336;55.932;2023-04-03T06:56:59;5.57;;;1.92;;
70729;SDS011;58315;53.336;55.932;2023-04-03T06:59:25;11.93;;;1.60;;
70729;SDS011;58315;53.336;55.932;2023-04-03T07:01:51;21.17;;;1.70;;
70729;SDS011;58315;53.336;55.932;2023-04-03T07:04:17;11.13;;;1.48;;
70729;SDS011;58315;53.336;55.932;2023-04-03T07:06:46;13.45;;;1.35;;
70729;SDS011;58315;53.336;55.932;2023-04-03T07:09:12;26.77;;;2.05;;
70729;SDS011;58315;53.336;55.932;2023-04-03T07:11:39;12.23;;;1.30;;
70729;SDS011;58315;53.336;55.932;2023-04-03T07:14:05;23.35;;;1.70;;
70729;SDS011;58315;53.336;55.932;2023-04-03T07:16:33;10.68;;;1.30;;
70729;SDS011;58315;53.336;55.932;2023-04-03T07:19:00;17.38;;;1.30;;
70729;SDS011;58315;53.336;55.932;2023-04-03T07:21:27;12.77;;;1.52;;
70729;SDS011;58315;53.336;55.932;2023-04-03T07:23:53;12.50;;;1.13;;
70729;SDS011;58315;53.336;55.932;2023-04-03T07:26:20;10.38;;;1.10;;
70729;SDS011;58315;53.336;55.932;2023-04-03T07:28:48;6.70;;;1.20;;
70729;SDS011;58315;53.336;55.932;2023-04-03T07:31:15;13.77;;;1.58;;
70729;SDS011;58315;53.336;55.932;2023-04-03T07:33:42;10.73;;;1.35;;
70729;SDS011;58315;53.336;55.932;2023-04-03T07:36:11;10.93;;;1.30;;
70729;SDS011;58315;53.336;55.932;2023-04-03T07:38:41;6.57;;;1.08;;
70729;SDS011;58315;53.336;55.932;2023-04-03T07:41:07;10.43;;;1.10;;
70729;SDS011;58315;53.336;55.932;2023-04-03T07:43:39;8.00;;;1.00;;
70729;SDS011;58315;53.336;55.932;2023-04-03T07:46:06;11.05;;;1.30;;
70729;SDS011;58315;53.336;55.932;2023-04-03T07:48:32;5.45;;;1.10;;
70729;SDS011;58315;53.336;55.932;2023-04-03T07:50:59;14.15;;;2.00;;
70729;SDS011;58315;53.336;55.932;2023-04-03T07:53:26;7.22;;;1.35;;
70729;SDS011;58315;53.336;55.932;2023-04-03T07:55:52;18.92;;;1.63;;
70729;SDS011;58315;53.336;55.932;2023-04-03T07:58:21;11.30;;;1.38;;
70729;SDS011;58315;53.336;55.932;2023-04-03T08:00:47;7.45;;;1.20;;
70729;SDS011;58315;53.336;55.932;2023-04-03T08:03:14;6.13;;;1.23;;
70729;SDS011;58315;53.336;55.932;2023-04-03T08:05:42;13.32;;;1.40;;
70729;SDS011;58315;53.336;55.932;2023-04-03T08:08:14;8.45;;;1.08;;
70729;SDS011;58315;53.336;55.932;2023-04-03T08:10:42;10.85;;;1.27;;
70729;SDS011;58315;53.336;55.932;2023-04-03T08:13:08;7.90;;;1.10;;
70729;SDS011;58315;53.336;55.932;2023-04-03T08:15:35;15.10;;;1.67;;
70729;SDS011;58315;53.336;55.932;2023-04-03T08:18:02;7.00;;;1.17;;
70729;SDS011;58315;53.336;55.932;2023-04-03T08:20:29;7.22;;;1.10;;
70729;SDS011;58315;53.336;55.932;2023-04-03T08:22:55;11.07;;;1.30;;
70729;SDS011;58315;53.336;55.932;2023-04-03T08:25:21;4.90;;;1.00;;
70729;SDS011;58315;53.336;55.932;2023-04-03T08:27:47;4.85;;;1.02;;
70729;SDS011;58315;53.336;55.932;2023-04-03T08:30:13;9.65;;;1.95;;
70729;SDS011;58315;53.336;55.932;2023-04-03T08:32:39;12.75;;;1.35;;
70729;SDS011;58315;53.336;55.932;2023-04-03T08:35:08;6.35;;;1.00;;
70729;SDS011;58315;53.336;55.932;2023-04-03T08:37:35;7.13;;;1.20;;
70729;SDS011;58315;53.336;55.932;2023-04-03T08:40:03;4.28;;;1.30;;
70729;SDS011;58315;53.336;55.932;2023-04-03T08:47:54;9.25;;;1.40;;
70729;SDS011;58315;53.336;55.932;2023-04-03T08:50:33;16.85;;;1.40;;
70729;SDS011;58315;53.336;55.932;2023-04-03T08:53:05;9.55;;;1.30;;
70729;SDS011;58315;53.336;55.932;2023-04-03T08:55:44;12.38;;;1.30;;
70729;SDS011;58315;53.336;55.932;2023-04-03T08:58:14;2.33;;;1.00;;
70729;SDS011;58315;53.336;55.932;2023-04-03T09:00:44;12.65;;;1.77;;
70729;SDS011;58315;53.336;55.932;2023-04-03T09:03:15;10.02;;;1.13;;
70729;SDS011;58315;53.336;55.932;2023-04-03T09:08:24;21.65;;;1.88;;
70729;SDS011;58315;53.336;55.932;2023-04-03T09:10:58;13.23;;;1.42;;
70729;SDS011;58315;53.336;55.932;2023-04-03T09:13:35;8.68;;;1.25;;
70729;SDS011;58315;53.336;55.932;2023-04-03T09:16:25;9.55;;;1.52;;
70729;SDS011;58315;53.336;55.932;2023-04-03T09:19:02;5.65;;;1.38;;
70729;SDS011;58315;53.336;55.932;2023-04-03T09:21:43;9.40;;;1.38;;
70729;SDS011;58315;53.336;55.932;2023-04-03T09:24:10;8.23;;;1.25;;
70729;SDS011;58315;53.336;55.932;2023-04-03T09:26:44;15.57;;;1.00;;
70729;SDS011;58315;53.336;55.932;2023-04-03T09:29:25;5.10;;;1.20;;
70729;SDS011;58315;53.336;55.932;2023-04-03T09:31:59;9.05;;;0.95;;
70729;SDS011;58315;53.336;55.932;2023-04-03T09:34:35;10.68;;;1.20;;
70729;SDS011;58315;53.336;55.932;2023-04-03T09:37:02;10.05;;;1.70;;
70729;SDS011;58315;53.336;55.932;2023-04-03T09:39:32;19.35;;;1.60;;
70729;SDS011;58315;53.336;55.932;2023-04-03T09:42:24;5.10;;;1.23;;
70729;SDS011;58315;53.336;55.932;2023-04-03T09:44:55;14.48;;;1.88;;
70729;SDS011;58315;53.336;55.932;2023-04-03T09:47:26;14.32;;;1.10;;
70729;SDS011;58315;53.336;55.932;2023-04-03T09:52:41;3.05;;;1.00;;
70729;SDS011;58315;53.336;55.932;2023-04-03T09:55:22;4.47;;;1.00;;
70729;SDS011;58315;53.336;55.932;2023-04-03T09:57:59;5.78;;;1.00;;
70729;SDS011;58315;53.336;55.932;2023-04-03T10:00:31;8.65;;;1.38;;
70729;SDS011;58315;53.336;55.932;2023-04-03T10:03:00;6.45;;;1.10;;
70729;SDS011;58315;53.336;55.932;2023-04-03T10:10:42;14.73;;;1.73;;
70729;SDS011;58315;53.336;55.932;2023-04-03T10:13:14;8.30;;;1.10;;
70729;SDS011;58315;53.336;55.932;2023-04-03T10:15:45;9.55;;;1.10;;
70729;SDS011;58315;53.336;55.932;2023-04-03T10:29:55;9.77;;;1.20;;
70729;SDS011;58315;53.336;55.932;2023-04-03T10:40:40;4.18;;;1.45;;
70729;SDS011;58315;53.336;55.932;2023-04-03T10:43:21;9.68;;;1.60;;
70729;SDS011;58315;53.336;55.932;2023-04-03T10:49:14;10.50;;;1.50;;
70729;SDS011;58315;53.336;55.932;2023-04-03T10:52:22;5.57;;;1.38;;
70729;SDS011;58315;53.336;55.932;2023-04-03T10:57:50;8.52;;;1.75;;
70729;SDS011;58315;53.336;55.932;2023-04-03T11:00:20;10.02;;;1.77;;
70729;SDS011;58315;53.336;55.932;2023-04-03T11:02:52;11.98;;;2.00;;
70729;SDS011;58315;53.336;55.932;2023-04-03T11:10:52;8.63;;;1.83;;
70729;SDS011;58315;53.336;55.932;2023-04-03T11:13:43;12.02;;;1.60;;
70729;SDS011;58315;53.336;55.932;2023-04-03T11:16:19;15.45;;;1.50;;
70729;SDS011;58315;53.336;55.932;2023-04-03T11:18:54;9.27;;;1.83;;
70729;SDS011;58315;53.336;55.932;2023-04-03T11:21:29;5.78;;;1.88;;
70729;SDS011;58315;53.336;55.932;2023-04-03T11:24:01;11.05;;;2.20;;
70729;SDS011;58315;53.336;55.932;2023-04-03T11:26:35;12.18;;;1.55;;
70729;SDS011;58315;53.336;55.932;2023-04-03T11:29:06;18.73;;;1.95;;
70729;SDS011;58315;53.336;55.932;2023-04-03T11:34:13;13.40;;;1.90;;
70729;SDS011;58315;53.336;55.932;2023-04-03T11:37:02;10.73;;;2.15;;
70729;SDS011;58315;53.336;55.932;2023-04-03T11:39:36;13.63;;;1.92;;
70729;SDS011;58315;53.336;55.932;2023-04-03T11:42:14;9.05;;;1.67;;
70729;SDS011;58315;53.336;55.932;2023-04-03T11:45:24;10.20;;;1.92;;
70729;SDS011;58315;53.336;55.932;2023-04-03T11:48:01;8.05;;;2.55;;
70729;SDS011;58315;53.336;55.932;2023-04-03T11:50:50;16.53;;;2.10;;
70729;SDS011;58315;53.336;55.932;2023-04-03T11:55:46;12.70;;;2.10;;
70729;SDS011;58315;53.336;55.932;2023-04-03T11:58:30;11.93;;;2.25;;
70729;SDS011;58315;53.336;55.932;2023-04-03T12:03:30;15.38;;;2.15;;
70729;SDS011;58315;53.336;55.932;2023-04-03T12:08:52;7.57;;;2.03;;
70729;SDS011;58315;53.336;55.932;2023-04-03T12:11:28;11.52;;;1.77;;
70729;SDS011;58315;53.336;55.932;2023-04-03T12:29:46;26.95;;;2.45;;
70729;SDS011;58315;53.336;55.932;2023-04-03T12:48:29;17.45;;;2.63;;
70729;SDS011;58315;53.336;55.932;2023-04-03T12:50:57;17.13;;;2.58;;
70729;SDS011;58315;53.336;55.932;2023-04-03T12:53:28;16.67;;;2.53;;
70729;SDS011;58315;53.336;55.932;2023-04-03T12:56:18;14.85;;;3.25;;
70729;SDS011;58315;53.336;55.932;2023-04-03T12:58:44;12.65;;;2.40;;
70729;SDS011;58315;53.336;55.932;2023-04-03T13:01:11;17.25;;;2.38;;
70729;SDS011;58315;53.336;55.932;2023-04-03T13:03:41;12.27;;;2.10;;
70729;SDS011;58315;53.336;55.932;2023-04-03T13:06:10;16.95;;;4.00;;
70729;SDS011;58315;53.336;55.932;2023-04-03T13:08:48;11.88;;;2.20;;
70729;SDS011;58315;53.336;55.932;2023-04-03T13:11:15;13.63;;;2.28;;
70729;SDS011;58315;53.336;55.932;2023-04-03T13:14:05;8.80;;;2.55;;
70729;SDS011;58315;53.336;55.932;2023-04-03T13:16:41;27.73;;;2.30;;
70729;SDS011;58315;53.336;55.932;2023-04-03T13:19:15;17.98;;;2.53;;
70729;SDS011;58315;53.336;55.932;2023-04-03T13:21:43;15.35;;;2.30;;
70729;SDS011;58315;53.336;55.932;2023-04-03T13:24:10;11.70;;;2.90;;
70729;SDS011;58315;53.336;55.932;2023-04-03T13:26:37;16.75;;;2.03;;
70729;SDS011;58315;53.336;55.932;2023-04-03T13:29:28;8.98;;;2.63;;
70729;SDS011;58315;53.336;55.932;2023-04-03T13:31:55;18.33;;;2.85;;
70729;SDS011;58315;53.336;55.932;2023-04-03T13:34:22;12.23;;;1.90;;
70729;SDS011;58315;53.336;55.932;2023-04-03T13:41:57;12.02;;;2.20;;
70729;SDS011;58315;53.336;55.932;2023-04-03T13:46:56;8.63;;;2.03;;
70729;SDS011;58315;53.336;55.932;2023-04-03T13:55:17;11.77;;;2.22;;
70729;SDS011;58315;53.336;55.932;2023-04-03T14:00:27;18.02;;;2.15;;
70729;SDS011;58315;53.336;55.932;2023-04-03T14:02:59;20.83;;;2.08;;
70729;SDS011;58315;53.336;55.932;2023-04-03T14:05:26;17.08;;;2.20;;
70729;SDS011;58315;53.336;55.932;2023-04-03T14:07:53;11.65;;;2.08;;
70729;SDS011;58315;53.336;55.932;2023-04-03T14:10:19;16.48;;;2.17;;
70729;SDS011;58315;53.336;55.932;2023-04-03T14:12:46;10.88;;;2.30;;
70729;SDS011;58315;53.336;55.932;2023-04-03T14:17:50;10.23;;;1.88;;
70729;SDS011;58315;53.336;55.932;2023-04-03T14:20:20;14.73;;;1.75;;
70729;SDS011;58315;53.336;55.932;2023-04-03T14:22:49;18.52;;;1.95;;
70729;SDS011;58315;53.336;55.932;2023-04-03T14:25:17;21.63;;;2.30;;
70729;SDS011;58315;53.336;55.932;2023-04-03T14:27:47;22.00;;;3.60;;
70729;SDS011;58315;53.336;55.932;2023-04-03T14:30:20;12.80;;;1.85;;
70729;SDS011;58315;53.336;55.932;2023-04-03T14:32:52;11.57;;;1.95;;
70729;SDS011;58315;53.336;55.932;2023-04-03T14:35:18;4.63;;;1.60;;
70729;SDS011;58315;53.336;55.932;2023-04-03T14:37:45;5.53;;;1.63;;
70729;SDS011;58315;53.336;55.932;2023-04-03T14:40:14;5.55;;;2.42;;
70729;SDS011;58315;53.336;55.932;2023-04-03T14:42:45;11.50;;;1.67;;
70729;SDS011;58315;53.336;55.932;2023-04-03T14:45:12;17.15;;;1.85;;
70729;SDS011;58315;53.336;55.932;2023-04-03T14:47:57;9.15;;;1.83;;
70729;SDS011;58315;53.336;55.932;2023-04-03T14:50:25;15.73;;;2.08;;
70729;SDS011;58315;53.336;55.932;2023-04-03T14:52:53;21.70;;;1.95;;
70729;SDS011;58315;53.336;55.932;2023-04-03T14:55:22;3.20;;;1.35;;
70729;SDS011;58315;53.336;55.932;2023-04-03T14:57:49;20.90;;;1.92;;
70729;SDS011;58315;53.336;55.932;2023-04-03T15:00:17;13.52;;;2.20;;
70729;SDS011;58315;53.336;55.932;2023-04-03T15:02:44;5.00;;;1.52;;
70729;SDS011;58315;53.336;55.932;2023-04-03T15:05:13;7.63;;;1.63;;
70729;SDS011;58315;53.336;55.932;2023-04-03T15:07:45;15.05;;;1.60;;
70729;SDS011;58315;53.336;55.932;2023-04-03T15:10:16;11.85;;;3.97;;
70729;SDS011;58315;53.336;55.932;2023-04-03T15:12:44;8.23;;;1.58;;
70729;SDS011;58315;53.336;55.932;2023-04-03T15:15:11;10.05;;;1.80;;
70729;SDS011;58315;53.336;55.932;2023-04-03T15:17:37;15.60;;;1.80;;
70729;SDS011;58315;53.336;55.932;2023-04-03T15:20:14;5.57;;;1.80;;
70729;SDS011;58315;53.336;55.932;2023-04-03T15:22:42;6.35;;;1.70;;
70729;SDS011;58315;53.336;55.932;2023-04-03T15:25:09;9.32;;;1.80;;
70729;SDS011;58315;53.336;55.932;2023-04-03T15:27:35;12.95;;;1.25;;
70729;SDS011;58315;53.336;55.932;2023-04-03T15:30:02;10.55;;;2.13;;
70729;SDS011;58315;53.336;55.932;2023-04-03T15:32:30;21.67;;;1.92;;
70729;SDS011;58315;53.336;55.932;2023-04-03T15:34:57;13.98;;;2.33;;
70729;SDS011;58315;53.336;55.932;2023-04-03T15:37:22;10.80;;;1.80;;
70729;SDS011;58315;53.336;55.932;2023-04-03T15:39:49;14.75;;;1.73;;
70729;SDS011;58315;53.336;55.932;2023-04-03T15:42:15;15.07;;;1.65;;
70729;SDS011;58315;53.336;55.932;2023-04-03T15:44:40;13.20;;;2.45;;
70729;SDS011;58315;53.336;55.932;2023-04-03T15:47:06;10.43;;;2.80;;
70729;SDS011;58315;53.336;55.932;2023-04-03T15:49:33;22.70;;;2.60;;
70729;SDS011;58315;53.336;55.932;2023-04-03T15:51:59;16.80;;;3.15;;
70729;SDS011;58315;53.336;55.932;2023-04-03T15:54:26;15.75;;;2.10;;
70729;SDS011;58315;53.336;55.932;2023-04-03T15:56:52;21.33;;;2.25;;
70729;SDS011;58315;53.336;55.932;2023-04-03T15:59:18;17.27;;;2.47;;
70729;SDS011;58315;53.336;55.932;2023-04-03T16:01:45;17.65;;;1.90;;
70729;SDS011;58315;53.336;55.932;2023-04-03T16:04:11;15.55;;;2.10;;
70729;SDS011;58315;53.336;55.932;2023-04-03T16:06:37;18.92;;;2.45;;
70729;SDS011;58315;53.336;55.932;2023-04-03T16:09:04;7.53;;;1.73;;
70729;SDS011;58315;53.336;55.932;2023-04-03T16:11:30;11.05;;;2.42;;
70729;SDS011;58315;53.336;55.932;2023-04-03T16:13:56;28.25;;;6.03;;
70729;SDS011;58315;53.336;55.932;2023-04-03T16:16:23;21.13;;;2.05;;
70729;SDS011;58315;53.336;55.932;2023-04-03T16:18:51;20.13;;;2.20;;
70729;SDS011;58315;53.336;55.932;2023-04-03T16:21:18;19.58;;;2.40;;
70729;SDS011;58315;53.336;55.932;2023-04-03T16:23:44;16.75;;;2.00;;
70729;SDS011;58315;53.336;55.932;2023-04-03T16:26:11;9.02;;;2.17;;
70729;SDS011;58315;53.336;55.932;2023-04-03T16:28:37;15.70;;;3.97;;
70729;SDS011;58315;53.336;55.932;2023-04-03T16:31:04;18.55;;;2.70;;